Fillmore, California
Current Conditions -  °F | °C
As of 5:55 AM on Wednesday 26 Nov 2014 (Local Time) from KCMA Reporting Station
Clear Clear  
Wind Chill: 50°   Ceiling: Unl
Heat Index: 50°   Visibility: 10mi
Dew Point: 25°   Wind: 6mph
Humidity: 38%   Direction: 50°NE
Pressure: 30.21"   Gusts: NA
Location:  34.4°N, 118.91°W
Report Text: KCMA 261355Z AUTO 05005KT 10SM CLR 10/M04 A3021 RMK AO2 SLP237 T01001039
Loading
Personal Weather Stations






























Interactive Weather Map New forecast layout! Learn more

10-Day Weather Forecast

Advertisements
Track Severe Weather on mobile